Cacilhas Cm — VRUA8 — position and weather

sailwx.info

Track history (hours):
 
Tides and Currents Weather Stations Pressure Air Temp Water Temp Dewpoint Dewpoint Depression Visibility Wind Speed Wind Dir Waves Ship Positions

Cacilhas Cm

Last reported at 2016-Sep-25 04:09 UTC. Time now 2016-Sep-25 07:12 UTC.
Position N 22°12' E 113°48'.

Length 29 m.

Type: Ship (hazmat cat D). MMSI: 477092000.

Date/timePositionNaut miles runAvg speedWind from/ knotsBaromVisibWave heightAir tempDewpointWater temp
2016-Sep-25 04:09N 22°12' E 113°48'20 5.6
2016-Sep-25 00:33N 22°17' E 114°09'24 3.8
2016-Sep-24 18:13N 22°12' E 113°44'2437.1
2016-Sep-24 17:33N 22°17' E 114°09'1817.5
2016-Sep-24 16:32N 22°11' E 113°51'5 2.3
2016-Sep-24 14:10N 22°12' E 113°45'4 2.1
2016-Sep-24 12:29N 22°11' E 113°49'2010.2
2016-Sep-24 10:34N 22°17' E 114°09'1817.2
2016-Sep-24 09:31N 22°11' E 113°51'18 3.0
2016-Sep-24 03:33N 22°17' E 114°09'2 0.9
2016-Sep-24 01:13N 22°17' E 114°07'2 3.1
2016-Sep-24 00:33N 22°17' E 114°09'28 5.4
2016-Sep-23 19:18N 22°11' E 113°39'2816.3
2016-Sep-23 17:33N 22°17' E 114°09'23 9.8
2016-Sep-23 15:11N 22°12' E 113°45'6 3.7
2016-Sep-23 13:31N 22°11' E 113°51'6 1.5
2016-Sep-23 09:15N 22°12' E 113°45'1 0.2
2016-Sep-23 06:15N 22°12' E 113°45'2313.4
2016-Sep-23 04:34N 22°17' E 114°09'2 0.7
2016-Sep-23 02:11N 22°18' E 114°07'2 2.9
2016-Sep-23 01:34N 22°17' E 114°09'2 0.7
2016-Sep-22 23:10N 22°18' E 114°07'2 0.6
2016-Sep-22 20:24N 22°17' E 114°09'0 0.0
2016-Sep-22 12:33N 22°17' E 114°09'24 2.9
2016-Sep-22 04:12N 22°12' E 113°44'2436.3
2016-Sep-22 03:32N 22°17' E 114°09'0 0.0
2016-Sep-22 00:33N 22°17' E 114°09'1918.3
2016-Sep-21 23:29N 22°11' E 113°49'2 0.3
2016-Sep-21 16:32N 22°11' E 113°51'6 0.8
2016-Sep-21 09:14N 22°12' E 113°45'2334.7
2016-Sep-21 08:33N 22°17' E 114°09'2 0.3
2016-Sep-21 02:13N 22°17' E 114°07'2 0.3
2016-Sep-20 17:33N 22°17' E 114°09'18 4.4
2016-Sep-20 13:33N 22°11' E 113°51'0 0.1
2016-Sep-20 10:32N 22°11' E 113°51'16 1.9
2016-Sep-20 02:13N 22°18' E 114°07'1 0.2
2016-Sep-19 23:12N 22°18' E 114°07'2 0.5
2016-Sep-19 19:34N 22°17' E 114°09'0 0.0
2016-Sep-19 18:33N 22°17' E 114°09'0 0.0
2016-Sep-19 16:33N 22°17' E 114°09'0 0.0
2016-Sep-19 13:33N 22°17' E 114°09'1817.8
2016-Sep-19 12:32N 22°11' E 113°51'6 4.1
2016-Sep-19 11:12N 22°12' E 113°45'3 1.9
2016-Sep-19 09:28N 22°11' E 113°49'2010.3
2016-Sep-19 07:33N 22°17' E 114°09'2018.2
2016-Sep-19 06:28N 22°11' E 113°49'20 6.7
2016-Sep-19 03:33N 22°17' E 114°09'0 0.0
2016-Sep-19 00:33N 22°17' E 114°09'0 0.0
2016-Sep-18 19:33N 22°17' E 114°09'0 0.0
2016-Sep-18 15:34N 22°17' E 114°09'2 0.3
2016-Sep-18 09:13N 22°18' E 114°07'2 0.3
2016-Sep-18 02:33N 22°17' E 114°09'2019.8
2016-Sep-18 01:33N 22°11' E 113°49'5 4.2
2016-Sep-18 00:15N 22°12' E 113°43'2514.7
2016-Sep-17 22:33N 22°17' E 114°09'0 0.0
2016-Sep-17 21:33N 22°17' E 114°09'0 0.0
2016-Sep-17 20:33N 22°17' E 114°09'1813.0
2016-Sep-17 19:11N 22°11' E 113°51'18 3.1
2016-Sep-17 13:33N 22°17' E 114°09'25 8.2
2016-Sep-17 10:33N 22°12' E 113°43'2524.8
2016-Sep-17 09:33N 22°17' E 114°09'1818.1
2016-Sep-17 08:34N 22°11' E 113°51'18 5.9
2016-Sep-17 05:33N 22°17' E 114°09'23 4.6
2016-Sep-17 00:30N 22°12' E 113°44'22 3.0
2016-Sep-16 17:15N 22°18' E 114°07'2 1.4
2016-Sep-16 15:32N 22°17' E 114°09'0 0.0
2016-Sep-16 12:33N 22°17' E 114°09'0 0.0
2016-Sep-16 09:33N 22°17' E 114°09'24 9.7
2016-Sep-16 07:05N 22°12' E 113°44'0 0.1
2016-Sep-16 03:33N 22°12' E 113°44'2424.2
2016-Sep-16 02:32N 22°17' E 114°09'2310.6
2016-Sep-16 00:24N 22°12' E 113°45'5 2.8
2016-Sep-15 22:31N 22°11' E 113°51'17 7.3
2016-Sep-15 20:11N 22°18' E 114°08'18 2.4
2016-Sep-15 12:33N 22°11' E 113°50'6 4.8
2016-Sep-15 11:18N 22°12' E 113°44'23 3.2
2016-Sep-15 04:12N 22°18' E 114°07'  
Track history (hours):
 
Tides and Currents Weather Stations Pressure Air Temp Water Temp Dewpoint Dewpoint Depression Visibility Wind Speed Wind Dir Waves Ship Positions

Cacilhas Cm

Last reported at 2016-Sep-25 04:09 UTC. Time now 2016-Sep-25 07:12 UTC.
Position N 22°12' E 113°48'.

Length 29 m.

Type: Ship (hazmat cat D). MMSI: 477092000.

Date/timePositionNaut miles runAvg speedWind from/ knotsBaromVisibWave heightAir tempDewpointWater temp
2016-Sep-25 04:09N 22°12' E 113°48'20 5.6
2016-Sep-25 00:33N 22°17' E 114°09'24 3.8
2016-Sep-24 18:13N 22°12' E 113°44'2437.1
2016-Sep-24 17:33N 22°17' E 114°09'1817.5
2016-Sep-24 16:32N 22°11' E 113°51'5 2.3
2016-Sep-24 14:10N 22°12' E 113°45'4 2.1
2016-Sep-24 12:29N 22°11' E 113°49'2010.2
2016-Sep-24 10:34N 22°17' E 114°09'1817.2
2016-Sep-24 09:31N 22°11' E 113°51'18 3.0
2016-Sep-24 03:33N 22°17' E 114°09'2 0.9
2016-Sep-24 01:13N 22°17' E 114°07'2 3.1
2016-Sep-24 00:33N 22°17' E 114°09'28 5.4
2016-Sep-23 19:18N 22°11' E 113°39'2816.3
2016-Sep-23 17:33N 22°17' E 114°09'23 9.8
2016-Sep-23 15:11N 22°12' E 113°45'6 3.7
2016-Sep-23 13:31N 22°11' E 113°51'6 1.5
2016-Sep-23 09:15N 22°12' E 113°45'1 0.2
2016-Sep-23 06:15N 22°12' E 113°45'2313.4
2016-Sep-23 04:34N 22°17' E 114°09'2 0.7
2016-Sep-23 02:11N 22°18' E 114°07'2 2.9
2016-Sep-23 01:34N 22°17' E 114°09'2 0.7
2016-Sep-22 23:10N 22°18' E 114°07'2 0.6
2016-Sep-22 20:24N 22°17' E 114°09'0 0.0
2016-Sep-22 12:33N 22°17' E 114°09'24 2.9
2016-Sep-22 04:12N 22°12' E 113°44'2436.3
2016-Sep-22 03:32N 22°17' E 114°09'0 0.0
2016-Sep-22 00:33N 22°17' E 114°09'1918.3
2016-Sep-21 23:29N 22°11' E 113°49'2 0.3
2016-Sep-21 16:32N 22°11' E 113°51'6 0.8
2016-Sep-21 09:14N 22°12' E 113°45'2334.7
2016-Sep-21 08:33N 22°17' E 114°09'2 0.3
2016-Sep-21 02:13N 22°17' E 114°07'2 0.3
2016-Sep-20 17:33N 22°17' E 114°09'18 4.4
2016-Sep-20 13:33N 22°11' E 113°51'0 0.1
2016-Sep-20 10:32N 22°11' E 113°51'16 1.9
2016-Sep-20 02:13N 22°18' E 114°07'1 0.2
2016-Sep-19 23:12N 22°18' E 114°07'2 0.5
2016-Sep-19 19:34N 22°17' E 114°09'0 0.0
2016-Sep-19 18:33N 22°17' E 114°09'0 0.0
2016-Sep-19 16:33N 22°17' E 114°09'0 0.0
2016-Sep-19 13:33N 22°17' E 114°09'1817.8
2016-Sep-19 12:32N 22°11' E 113°51'6 4.1
2016-Sep-19 11:12N 22°12' E 113°45'3 1.9
2016-Sep-19 09:28N 22°11' E 113°49'2010.3
2016-Sep-19 07:33N 22°17' E 114°09'2018.2
2016-Sep-19 06:28N 22°11' E 113°49'20 6.7
2016-Sep-19 03:33N 22°17' E 114°09'0 0.0
2016-Sep-19 00:33N 22°17' E 114°09'0 0.0
2016-Sep-18 19:33N 22°17' E 114°09'0 0.0
2016-Sep-18 15:34N 22°17' E 114°09'2 0.3
2016-Sep-18 09:13N 22°18' E 114°07'2 0.3
2016-Sep-18 02:33N 22°17' E 114°09'2019.8
2016-Sep-18 01:33N 22°11' E 113°49'5 4.2
2016-Sep-18 00:15N 22°12' E 113°43'2514.7
2016-Sep-17 22:33N 22°17' E 114°09'0 0.0
2016-Sep-17 21:33N 22°17' E 114°09'0 0.0
2016-Sep-17 20:33N 22°17' E 114°09'1813.0
2016-Sep-17 19:11N 22°11' E 113°51'18 3.1
2016-Sep-17 13:33N 22°17' E 114°09'25 8.2
2016-Sep-17 10:33N 22°12' E 113°43'2524.8
2016-Sep-17 09:33N 22°17' E 114°09'1818.1
2016-Sep-17 08:34N 22°11' E 113°51'18 5.9
2016-Sep-17 05:33N 22°17' E 114°09'23 4.6
2016-Sep-17 00:30N 22°12' E 113°44'22 3.0
2016-Sep-16 17:15N 22°18' E 114°07'2 1.4
2016-Sep-16 15:32N 22°17' E 114°09'0 0.0
2016-Sep-16 12:33N 22°17' E 114°09'0 0.0
2016-Sep-16 09:33N 22°17' E 114°09'24 9.7
2016-Sep-16 07:05N 22°12' E 113°44'0 0.1
2016-Sep-16 03:33N 22°12' E 113°44'2424.2
2016-Sep-16 02:32N 22°17' E 114°09'2310.6
2016-Sep-16 00:24N 22°12' E 113°45'5 2.8
2016-Sep-15 22:31N 22°11' E 113°51'17 7.3
2016-Sep-15 20:11N 22°18' E 114°08'18 2.4
2016-Sep-15 12:33N 22°11' E 113°50'6 4.8
2016-Sep-15 11:18N 22°12' E 113°44'23 3.2
2016-Sep-15 04:12N 22°18' E 114°07'  

Dump ship's entire track history